Westwego, LA

9:36 AM CDT on August 20, 2014 (GMT -0500)
Gordon Ave. | Change Station
CLOSE
Current Station
Personal Weather Station
Location: Harahan, LA
Elevation: 20 ft
Nearby Weather Stations

Elev 20 ft 29.94 °N, 90.20 °W | Updated 3 seconds ago

Scattered Clouds
Scattered Clouds
86.4 °F
Feels Like 98 °F
N
0.0
Wind Variable Wind from SE
Gusts 2.2 mph

Today
High -- | Low -- °F
--% Chance of Precip.
Yesterday
High -- | Low -- °F
Precip. -- in
6:31 AM 7:36 PM
Waning Crescent, 21% visible
Pressure 30.07 in
Visibility 10.0 miles
Clouds Few 2800 ft
Few 18000 ft
Scattered Clouds 25000 ft
Heat Index 98 °F
Dew Point 79 °F
Humidity 75%
Rainfall 0.00 in
Snow Depth Not available.
UV 0.0 out of 12
Pollen 6.80 out of 12
PM2.5 Moderate
Flu Activity Not available.
METAR KMSY 201353Z 00000KT 10SM FEW028 FEW180 SCT250 30/24 A3006 RMK AO2 SLP183 T03000244

More Conditions Fewer Conditions

Pressure 30.07 in
Visibility 10.0 miles
Clouds Few 2800 ft
Few 18000 ft
Scattered Clouds 25000 ft
Heat Index 98 °F
Dew Point 79 °F
Humidity 75%
Rainfall 0.00 in
Snow Depth Not available.
UV 0.0 out of 12
Pollen 6.80 out of 12
PM2.5 Moderate
Flu Activity Not available.
METAR KMSY 201353Z 00000KT 10SM FEW028 FEW180 SCT250 30/24 A3006 RMK AO2 SLP183 T03000244

More Conditions Fewer Conditions

10-Day Weather Forecast

Almanac

Astronomy

Aug. 20, 2014 Rise Set
Actual Time 6:31 AM CDT 7:36 PM CDT
Civil Twilight 6:06 AM CDT 8:01 PM CDT
Nautical Twilight 5:36 AM CDT 8:30 PM CDT
Astronomical Twilight 5:06 AM CDT 9:01 PM CDT
Moon 2:18 AM CDT 4:14 PM CDT
Length of Visible Light 13h 55m
Length of Day
13h 05m
Tomorrow will be 1m 39s shorter.
Waning Crescent, 21% of the Moon is Illuminated
Today
Waning Crescent
Aug 25
New
Sep 2
First Quarter
Sep 8
Full
Sep 15
Last Quarter

Today's Extremes

State Highs State Lows

Community

WunderPhotos

Upload Photos

1,745,654 photos uploaded!

Nearby

Air Quality

  Air Quality AQ Index Pollutant
Yesterday Moderate
PM2.5
Yesterday Good
OZONE
Current Moderate
PM2.5
Wednesday Moderate
PM2.5
Wednesday Good
OZONE
Thursday Moderate
PM2.5
Thursday Good
OZONE

Snow Depth

Station Depth Elevation
No new snow has been reported.

Earthquake Activity

City Distance Mag. Time & Date
No recent earthquake activity has been reported nearby.
Minimum magnitude displayed is 2.5.

Coastal Water Temperatures

Place Temperature
New Canal, LA 82.9 °F
Shell Beach, LA 82.0 °F
Bayou Gauche, LA 86.0 °F

Nearby Weather Stations